createdAt,value
2023-04-10T00:02:26.827Z,101822.22
2023-04-10T00:04:58.489Z,101815.25
2023-04-10T00:07:26.540Z,101827.44
2023-04-10T00:09:54.384Z,101828.97
2023-04-10T00:12:22.185Z,101827.28
2023-04-10T00:14:49.850Z,101820.63
2023-04-10T00:17:17.686Z,101817.56
2023-04-10T00:19:45.434Z,101813.69
2023-04-10T00:22:14.573Z,101820.63
2023-04-10T00:24:42.306Z,101812.16
2023-04-10T00:27:09.990Z,101798.13
2023-04-10T00:29:37.987Z,101799.66
2023-04-10T00:32:05.939Z,101792.72
2023-04-10T00:34:33.677Z,101798.00
2023-04-10T00:37:01.312Z,101788.03
2023-04-10T00:39:30.422Z,101791.19
2023-04-10T00:41:58.556Z,101786.09
2023-04-10T00:44:26.329Z,101788.75
2023-04-10T00:46:54.035Z,101785.81
2023-04-10T00:49:22.640Z,101787.97
2023-04-10T00:51:50.379Z,101789.66
2023-04-10T00:54:18.848Z,101792.66
2023-04-10T00:56:48.005Z,101792.38
2023-04-10T00:59:15.850Z,101792.38
2023-04-10T01:01:44.175Z,101800.63
2023-04-10T01:04:13.153Z,101792.97
2023-04-10T01:06:56.576Z,101785.38
2023-04-10T01:09:36.284Z,101796.53
2023-04-10T01:12:29.682Z,101790.97
2023-04-10T01:15:07.865Z,101791.97
2023-04-10T01:17:41.830Z,101797.81
2023-04-10T01:20:13.256Z,101798.84
2023-04-10T01:22:53.091Z,101790.59
2023-04-10T01:25:35.929Z,101798.53
2023-04-10T01:28:17.168Z,101797.53
2023-04-10T01:30:48.373Z,101793.69
2023-04-10T01:33:20.496Z,101810.16
2023-04-10T01:35:53.399Z,101801.06
2023-04-10T01:38:25.470Z,101802.22
2023-04-10T01:40:54.904Z,101797.69
2023-04-10T01:43:26.342Z,101801.78
2023-04-10T01:45:55.405Z,101788.56
2023-04-10T01:48:23.605Z,101795.59
2023-04-10T01:50:52.264Z,101789.03
2023-04-10T01:53:21.243Z,101789.19
2023-04-10T01:55:49.424Z,101785.34
2023-04-10T01:58:17.591Z,101787.19
2023-04-10T02:00:45.432Z,101775.72
2023-04-10T02:03:14.577Z,101780.47
2023-04-10T02:05:51.519Z,101776.06
2023-04-10T02:08:25.733Z,101785.78
2023-04-10T02:10:57.181Z,101783.31
2023-04-10T02:13:29.572Z,101775.53
2023-04-10T02:16:04.115Z,101769.91
2023-04-10T02:18:35.649Z,101770.34
2023-04-10T02:21:03.896Z,101760.56
2023-04-10T02:23:31.521Z,101757.44
2023-04-10T02:25:59.461Z,101748.97
2023-04-10T02:28:27.132Z,101759.03
2023-04-10T02:30:54.765Z,101753.75
2023-04-10T02:33:22.371Z,101752.03
2023-04-10T02:35:51.423Z,101744.97
2023-04-10T02:38:19.141Z,101753.03
2023-04-10T02:40:47.116Z,101748.25
2023-04-10T02:43:15.020Z,101753.78
2023-04-10T02:45:42.712Z,101751.56
2023-04-10T02:48:10.931Z,101746.25
2023-04-10T02:50:38.549Z,101746.09
2023-04-10T02:53:07.524Z,101743.00
2023-04-10T02:55:35.174Z,101739.78
2023-04-10T02:58:02.896Z,101741.16
2023-04-10T03:00:31.092Z,101734.78
2023-04-10T03:02:58.956Z,101728.41
2023-04-10T03:05:27.088Z,101736.47
2023-04-10T03:07:54.946Z,101735.41
2023-04-10T03:10:24.623Z,101734.69
2023-04-10T03:12:52.364Z,101743.38
2023-04-10T03:15:20.045Z,101730.06
2023-04-10T03:17:47.838Z,101729.22
2023-04-10T03:20:16.430Z,101726.13
2023-04-10T03:22:44.119Z,101727.13
2023-04-10T03:25:12.094Z,101721.56
2023-04-10T03:27:41.177Z,101712.34
2023-04-10T03:30:10.207Z,101706.56
2023-04-10T03:32:38.980Z,101704.72
2023-04-10T03:35:07.594Z,101717.72
2023-04-10T03:37:35.376Z,101703.94
2023-04-10T03:40:06.553Z,101705.47
2023-04-10T03:42:34.544Z,101705.78
2023-04-10T03:45:04.683Z,101710.63
2023-04-10T03:47:32.822Z,101712.56
2023-04-10T03:50:00.721Z,101704.78
2023-04-10T03:52:28.656Z,101700.78
2023-04-10T03:54:56.618Z,101701.50
2023-04-10T03:57:24.337Z,101710.16
2023-04-10T03:59:52.457Z,101711.31
2023-04-10T04:02:21.635Z,101705.38
2023-04-10T04:04:49.604Z,101701.31
2023-04-10T04:07:17.234Z,101704.84
2023-04-10T04:09:45.085Z,101706.94
2023-04-10T04:12:12.713Z,101705.50
2023-04-10T04:14:40.622Z,101707.22
2023-04-10T04:17:08.277Z,101705.00
2023-04-10T04:19:37.261Z,101698.91
2023-04-10T04:22:05.041Z,101700.03
2023-04-10T04:24:32.642Z,101698.63
2023-04-10T04:27:01.154Z,101697.59
2023-04-10T04:29:28.913Z,101697.31
2023-04-10T04:31:56.582Z,101687.22
2023-04-10T04:34:24.158Z,101702.94
2023-04-10T04:36:53.139Z,101698.09
2023-04-10T04:39:22.562Z,101695.38
2023-04-10T04:41:50.553Z,101702.38
2023-04-10T04:44:19.495Z,101698.47
2023-04-10T04:46:47.150Z,101701.59
2023-04-10T04:49:15.918Z,101700.19
2023-04-10T04:51:43.597Z,101703.59
2023-04-10T04:54:12.633Z,101705.31
2023-04-10T04:56:40.583Z,101701.91
2023-04-10T04:59:08.321Z,101701.66
2023-04-10T05:01:36.072Z,101701.13
2023-04-10T05:04:06.861Z,101705.13
2023-04-10T05:06:34.793Z,101703.44
2023-04-10T05:09:02.530Z,101704.50
2023-04-10T05:11:31.461Z,101702.06
2023-04-10T05:13:59.107Z,101703.69
2023-04-10T05:16:27.337Z,101704.50
2023-04-10T05:18:55.982Z,101704.75
2023-04-10T05:21:23.761Z,101706.97
2023-04-10T05:23:54.054Z,101696.66
2023-04-10T05:26:22.531Z,101700.34
2023-04-10T05:28:54.066Z,101698.06
2023-04-10T05:31:21.823Z,101698.75
2023-04-10T05:33:49.486Z,101700.13
2023-04-10T05:36:18.157Z,101705.38
2023-04-10T05:38:45.857Z,101708.34
2023-04-10T05:41:13.600Z,101704.09
2023-04-10T05:43:41.320Z,101701.63
2023-04-10T05:46:11.568Z,101706.97
2023-04-10T05:48:39.852Z,101708.22
2023-04-10T05:51:08.586Z,101704.34
2023-04-10T05:53:37.332Z,101703.91
2023-04-10T05:56:05.492Z,101705.28
2023-04-10T05:58:33.562Z,101702.59
2023-04-10T06:01:01.396Z,101707.53
2023-04-10T06:03:31.681Z,101704.69
2023-04-10T06:06:02.289Z,101708.53
2023-04-10T06:08:29.984Z,101710.31
2023-04-10T06:10:57.813Z,101711.53
2023-04-10T06:13:27.337Z,101706.00
2023-04-10T06:15:55.011Z,101702.63
2023-04-10T06:18:22.678Z,101695.22
2023-04-10T06:20:52.970Z,101689.81
2023-04-10T06:23:21.091Z,101695.59
2023-04-10T06:25:48.733Z,101682.28
2023-04-10T06:28:16.935Z,101675.81
2023-04-10T06:30:44.583Z,101676.34
2023-04-10T06:33:12.289Z,101677.03
2023-04-10T06:35:39.944Z,101674.34
2023-04-10T06:38:09.255Z,101665.88
2023-04-10T06:40:36.984Z,101670.13
2023-04-10T06:43:04.656Z,101668.25
2023-04-10T06:45:32.466Z,101670.34
2023-04-10T06:48:00.242Z,101669.69
2023-04-10T06:50:28.033Z,101664.41
2023-04-10T06:52:59.696Z,101667.34
2023-04-10T06:55:30.572Z,101663.22
2023-04-10T06:57:58.265Z,101668.38
2023-04-10T07:00:26.053Z,101671.13
2023-04-10T07:02:54.141Z,101667.81
2023-04-10T07:05:22.241Z,101657.19
2023-04-10T07:07:50.644Z,101651.00
2023-04-10T07:10:18.338Z,101652.91
2023-04-10T07:12:47.365Z,101651.38
2023-04-10T07:15:17.004Z,101647.53
2023-04-10T07:17:45.058Z,101644.56
2023-04-10T07:20:13.230Z,101643.56
2023-04-10T07:22:41.058Z,101635.81
2023-04-10T07:25:09.828Z,101643.94
2023-04-10T07:27:37.635Z,101629.75
2023-04-10T07:30:08.044Z,101629.41
2023-04-10T07:32:37.480Z,101627.06
2023-04-10T07:35:06.140Z,101620.97
2023-04-10T07:37:33.763Z,101626.22
2023-04-10T07:40:02.549Z,101617.91
2023-04-10T07:42:31.275Z,101616.88
2023-04-10T07:44:59.044Z,101620.25
2023-04-10T07:47:28.473Z,101613.63
2023-04-10T07:49:56.391Z,101616.13
2023-04-10T07:52:24.129Z,101618.78
2023-04-10T07:54:52.206Z,101610.31
2023-04-10T07:57:19.874Z,101616.50
2023-04-10T07:59:47.596Z,101606.50
2023-04-10T08:02:15.453Z,101607.75
2023-04-10T08:04:44.593Z,101613.31
2023-04-10T08:07:12.711Z,101600.75
2023-04-10T08:09:40.780Z,101599.66
2023-04-10T08:12:08.410Z,101596.72
2023-04-10T08:14:36.033Z,101602.06
2023-04-10T08:17:03.767Z,101587.13
2023-04-10T08:19:31.561Z,101587.97
2023-04-10T08:22:00.598Z,101590.44
2023-04-10T08:24:28.551Z,101580.56
2023-04-10T08:26:56.628Z,101581.31
2023-04-10T08:29:25.199Z,101574.97
2023-04-10T08:31:54.602Z,101582.69
2023-04-10T08:34:24.415Z,101577.56
2023-04-10T08:36:56.023Z,101573.63
2023-04-10T08:39:26.148Z,101567.47
2023-04-10T08:41:55.275Z,101569.06
2023-04-10T08:44:22.990Z,101568.19
2023-04-10T08:46:53.491Z,101563.81
2023-04-10T08:49:29.780Z,101558.25
2023-04-10T08:51:59.074Z,101559.16
2023-04-10T08:54:30.300Z,101552.59
2023-04-10T08:57:01.877Z,101553.59
2023-04-10T08:59:30.823Z,101554.34
2023-04-10T09:01:59.799Z,101547.47
2023-04-10T09:04:32.312Z,101544.63
2023-04-10T09:07:01.200Z,101546.75
2023-04-10T09:09:36.610Z,101538.44
2023-04-10T09:12:08.690Z,101529.88
2023-04-10T09:14:41.179Z,101535.53
2023-04-10T09:17:19.280Z,101524.91
2023-04-10T09:19:49.349Z,101513.84
2023-04-10T09:22:17.763Z,101517.63
2023-04-10T09:24:48.131Z,101513.03
2023-04-10T09:27:32.383Z,101499.06
2023-04-10T09:30:00.680Z,101495.94
2023-04-10T09:32:41.190Z,101486.63
2023-04-10T09:35:12.911Z,101483.34
2023-04-10T09:37:42.791Z,101474.38
2023-04-10T09:40:26.588Z,101467.56
2023-04-10T09:42:56.892Z,101461.53
2023-04-10T09:45:29.080Z,101458.63
2023-04-10T09:48:07.380Z,101445.22
2023-04-10T09:50:39.761Z,101448.84
2023-04-10T09:53:19.507Z,101442.75
2023-04-10T09:55:50.070Z,101434.19
2023-04-10T09:58:19.337Z,101437.56
2023-04-10T10:00:49.973Z,101428.78
2023-04-10T10:03:19.869Z,101427.78
2023-04-10T10:05:51.745Z,101423.22
2023-04-10T10:08:21.725Z,101410.63
2023-04-10T10:10:55.230Z,101404.97
2023-04-10T10:13:28.947Z,101397.84
2023-04-10T10:16:06.016Z,101391.38
2023-04-10T10:18:47.007Z,101392.28
2023-04-10T10:21:15.936Z,101384.13
2023-04-10T10:23:44.187Z,101387.06
2023-04-10T10:26:14.416Z,101383.06
2023-04-10T10:28:42.789Z,101371.34
2023-04-10T10:31:11.880Z,101371.56
2023-04-10T10:33:43.781Z,101367.78
2023-04-10T10:36:13.927Z,101366.09
2023-04-10T10:38:45.440Z,101365.69
2023-04-10T10:41:27.629Z,101354.63
2023-04-10T10:44:03.084Z,101345.41
2023-04-10T10:46:36.719Z,101345.84
2023-04-10T10:49:04.865Z,101337.25
2023-04-10T10:51:44.860Z,101334.94
2023-04-10T10:54:32.318Z,101328.44
2023-04-10T10:57:02.256Z,101327.38
2023-04-10T10:59:57.580Z,101325.09
2023-04-10T11:02:25.692Z,101320.44
2023-04-10T11:04:53.583Z,101312.06
2023-04-10T11:07:21.689Z,101306.00
2023-04-10T11:09:52.406Z,101313.72
2023-04-10T11:12:23.529Z,101296.75
2023-04-10T11:14:59.247Z,101293.59
2023-04-10T11:17:48.524Z,101284.16
2023-04-10T11:20:16.780Z,101268.81
2023-04-10T11:23:11.199Z,101258.72
2023-04-10T11:25:50.315Z,101257.44
2023-04-10T11:28:36.645Z,101255.06
2023-04-10T11:31:19.507Z,101250.66
2023-04-10T11:33:47.804Z,101243.94
2023-04-10T11:36:17.646Z,101238.22
2023-04-10T11:38:56.361Z,101221.44
2023-04-10T11:41:28.379Z,101222.44
2023-04-10T11:43:57.687Z,101213.31
2023-04-10T11:46:25.610Z,101193.34
2023-04-10T11:48:54.749Z,101197.72
2023-04-10T11:51:23.190Z,101202.59
2023-04-10T11:53:51.107Z,101178.31
2023-04-10T11:56:21.108Z,101180.91
2023-04-10T11:58:50.947Z,101184.13
2023-04-10T12:01:22.516Z,101186.13
2023-04-10T12:03:50.709Z,101182.78
2023-04-10T12:06:20.600Z,101159.53
2023-04-10T12:08:51.265Z,101184.53
2023-04-10T12:11:21.169Z,101179.63
2023-04-10T12:13:49.310Z,101162.69
2023-04-10T12:16:17.170Z,101154.34
2023-04-10T12:18:46.813Z,101148.16
2023-04-10T12:21:14.725Z,101159.63
2023-04-10T12:23:43.430Z,101144.09
2023-04-10T12:26:13.851Z,101125.81
2023-04-10T12:28:50.346Z,101126.88
2023-04-10T12:31:18.440Z,101122.53
2023-04-10T12:33:47.843Z,101130.97
2023-04-10T12:36:27.055Z,101129.31
2023-04-10T12:38:54.915Z,101128.50
2023-04-10T12:41:24.286Z,101120.78
2023-04-10T12:43:53.646Z,101120.34
2023-04-10T12:46:26.348Z,101120.19
2023-04-10T12:48:56.463Z,101112.44
2023-04-10T12:51:45.679Z,101119.56
2023-04-10T12:54:27.566Z,101108.78
2023-04-10T12:56:55.932Z,101111.13
2023-04-10T12:59:23.770Z,101105.59
2023-04-10T13:01:52.764Z,101101.38
2023-04-10T13:04:22.144Z,101094.47
2023-04-10T13:06:53.185Z,101095.03
2023-04-10T13:09:21.122Z,101086.16
2023-04-10T13:11:50.366Z,101084.44
2023-04-10T13:14:20.015Z,101077.84
2023-04-10T13:16:47.859Z,101076.56
2023-04-10T13:19:15.642Z,101070.63
2023-04-10T13:21:47.773Z,101061.13
2023-04-10T13:24:17.647Z,101055.69
2023-04-10T13:26:45.495Z,101050.94
2023-04-10T13:29:13.325Z,101059.38
2023-04-10T13:31:41.080Z,101047.72
2023-04-10T13:34:08.795Z,101041.31
2023-04-10T13:36:36.584Z,101037.88
2023-04-10T13:39:05.878Z,101029.34
2023-04-10T13:41:33.788Z,101031.13
2023-04-10T13:44:01.417Z,101022.03
2023-04-10T13:46:29.171Z,101011.16
2023-04-10T13:48:57.585Z,101017.63
2023-04-10T13:51:25.798Z,101001.19
2023-04-10T13:53:53.438Z,100977.75
2023-04-10T13:56:23.932Z,100978.94
2023-04-10T13:58:51.601Z,100968.22
2023-04-10T14:01:19.347Z,100967.97
2023-04-10T14:03:47.487Z,100963.00
2023-04-10T14:06:15.344Z,100963.56
2023-04-10T14:08:42.989Z,100960.00
2023-04-10T14:11:10.681Z,100949.06
2023-04-10T14:13:39.702Z,100950.25
2023-04-10T14:16:08.251Z,100940.84
2023-04-10T14:18:37.826Z,100935.94
2023-04-10T14:21:05.768Z,100922.13
2023-04-10T14:23:33.456Z,100925.34
2023-04-10T14:26:01.321Z,100913.94
2023-04-10T14:28:29.220Z,100913.47
2023-04-10T14:30:58.420Z,100916.59
2023-04-10T14:33:26.262Z,100912.19
2023-04-10T14:35:54.274Z,100892.66
2023-04-10T14:38:22.056Z,100884.56
2023-04-10T14:40:50.612Z,100884.31
2023-04-10T14:43:19.435Z,100876.09
2023-04-10T14:45:47.324Z,100874.22
2023-04-10T14:48:16.782Z,100867.44
2023-04-10T14:50:44.619Z,100861.13
2023-04-10T14:53:12.609Z,100863.50
2023-04-10T14:55:41.811Z,100853.03
2023-04-10T14:58:11.072Z,100836.84
2023-04-10T15:00:38.765Z,100834.50
2023-04-10T15:03:08.520Z,100832.22
2023-04-10T15:05:38.072Z,100825.91
2023-04-10T15:08:06.248Z,100827.09
2023-04-10T15:10:34.006Z,100808.56
2023-04-10T15:13:01.765Z,100807.00
2023-04-10T15:15:30.765Z,100799.72
2023-04-10T15:17:58.904Z,100795.06
2023-04-10T15:20:28.196Z,100794.25
2023-04-10T15:22:58.682Z,100779.41
2023-04-10T15:25:26.496Z,100778.22
2023-04-10T15:27:56.172Z,100772.50
2023-04-10T15:30:24.320Z,100769.03
2023-04-10T15:32:52.689Z,100757.88
2023-04-10T15:35:21.026Z,100756.09
2023-04-10T15:37:48.890Z,100747.88
2023-04-10T15:40:18.122Z,100747.78
2023-04-10T15:42:46.801Z,100747.41
2023-04-10T15:45:16.272Z,100733.41
2023-04-10T15:47:49.646Z,100725.91
2023-04-10T15:50:19.802Z,100727.09
2023-04-10T15:52:47.609Z,100721.75
2023-04-10T15:55:23.156Z,100711.88
2023-04-10T15:57:53.032Z,100708.56
2023-04-10T16:00:23.420Z,100708.56
2023-04-10T16:02:51.700Z,100699.50
2023-04-10T16:05:19.871Z,100696.44
2023-04-10T16:07:51.399Z,100695.84
2023-04-10T16:10:21.255Z,100689.91
2023-04-10T16:12:50.772Z,100686.69
2023-04-10T16:15:23.218Z,100681.47
2023-04-10T16:17:54.382Z,100678.97
2023-04-10T16:20:23.478Z,100668.25
2023-04-10T16:22:53.516Z,100668.75
2023-04-10T16:25:22.570Z,100650.22
2023-04-10T16:27:52.920Z,100647.63
2023-04-10T16:30:22.712Z,100640.63
2023-04-10T16:32:50.455Z,100643.34
2023-04-10T16:35:19.200Z,100637.75
2023-04-10T16:37:47.590Z,100638.94
2023-04-10T16:40:16.778Z,100640.63
2023-04-10T16:42:44.537Z,100634.78
2023-04-10T16:45:13.066Z,100625.78
2023-04-10T16:47:44.783Z,100620.31
2023-04-10T16:50:13.642Z,100611.38
2023-04-10T16:52:41.614Z,100616.28
2023-04-10T16:55:11.249Z,100608.19
2023-04-10T16:57:45.246Z,100609.50
2023-04-10T17:00:13.761Z,100602.13
2023-04-10T17:02:43.218Z,100598.34
2023-04-10T17:05:13.430Z,100591.34
2023-04-10T17:07:42.988Z,100579.78
2023-04-10T17:10:13.822Z,100576.50
2023-04-10T17:12:42.428Z,100575.44
2023-04-10T17:15:12.445Z,100580.28
2023-04-10T17:17:40.758Z,100577.78
2023-04-10T17:20:11.294Z,100576.63
2023-04-10T17:22:40.606Z,100581.72
2023-04-10T17:25:09.510Z,100576.72
2023-04-10T17:27:40.308Z,100569.59
2023-04-10T17:30:12.521Z,100563.53
2023-04-10T17:32:42.842Z,100568.41
2023-04-10T17:35:11.989Z,100562.34
2023-04-10T17:37:43.940Z,100564.50
2023-04-10T17:40:12.914Z,100558.44
2023-04-10T17:42:41.151Z,100563.41
2023-04-10T17:45:09.688Z,100560.59
2023-04-10T17:47:40.849Z,100558.06
2023-04-10T17:50:13.304Z,100549.53
2023-04-10T17:52:41.114Z,100548.34
2023-04-10T17:55:12.114Z,100543.97
2023-04-10T17:57:39.899Z,100547.09
2023-04-10T18:00:15.700Z,100539.41
2023-04-10T18:02:44.156Z,100528.13
2023-04-10T18:05:13.815Z,100535.72
2023-04-10T18:07:42.998Z,100532.38
2023-04-10T18:10:11.612Z,100524.44
2023-04-10T18:12:39.440Z,100524.31
2023-04-10T18:15:09.212Z,100513.63
2023-04-10T18:17:39.881Z,100517.44
2023-04-10T18:20:08.320Z,100515.56
2023-04-10T18:22:37.354Z,100506.88
2023-04-10T18:25:05.719Z,100501.91
2023-04-10T18:27:36.016Z,100505.69
2023-04-10T18:30:04.024Z,100494.66
2023-04-10T18:32:31.993Z,100489.69
2023-04-10T18:35:00.146Z,100489.06
2023-04-10T18:37:29.139Z,100487.78
2023-04-10T18:40:03.408Z,100481.94
2023-04-10T18:42:34.138Z,100471.50
2023-04-10T18:45:04.519Z,100471.75
2023-04-10T18:47:34.167Z,100475.31
2023-04-10T18:50:01.982Z,100474.13
2023-04-10T18:52:30.214Z,100468.28
2023-04-10T18:54:59.252Z,100468.28
2023-04-10T18:57:27.265Z,100469.34
2023-04-10T18:59:56.731Z,100462.94
2023-04-10T19:02:25.108Z,100467.09
2023-04-10T19:04:54.391Z,100456.91
2023-04-10T19:07:22.247Z,100452.28
2023-04-10T19:09:50.011Z,100454.75
2023-04-10T19:12:19.114Z,100451.22
2023-04-10T19:14:49.539Z,100449.19
2023-04-10T19:17:21.771Z,100445.03
2023-04-10T19:19:49.787Z,100446.69
2023-04-10T19:22:17.957Z,100449.19
2023-04-10T19:24:47.560Z,100443.72
2023-04-10T19:27:15.942Z,100449.19
2023-04-10T19:29:45.555Z,100442.09
2023-04-10T19:32:13.349Z,100422.41
2023-04-10T19:34:41.077Z,100436.63
2023-04-10T19:37:10.178Z,100430.34
2023-04-10T19:39:38.028Z,100423.22
2023-04-10T19:42:05.844Z,100427.84
2023-04-10T19:44:36.865Z,100415.28
2023-04-10T19:47:05.952Z,100405.56
2023-04-10T19:49:34.227Z,100412.31
2023-04-10T19:52:02.337Z,100407.59
2023-04-10T19:54:30.551Z,100414.22
2023-04-10T19:56:58.610Z,100406.88
2023-04-10T19:59:26.539Z,100406.06
2023-04-10T20:01:57.723Z,100401.16
2023-04-10T20:07:09.995Z,100392.16
2023-04-10T20:09:38.164Z,100377.59
2023-04-10T20:12:09.250Z,100375.34
2023-04-10T20:14:38.398Z,100364.88
2023-04-10T20:17:06.580Z,100366.56
2023-04-10T20:19:35.982Z,100358.84
2023-04-10T20:22:10.289Z,100359.19
2023-04-10T20:24:38.806Z,100360.38
2023-04-10T20:27:06.663Z,100353.63
2023-04-10T20:29:34.524Z,100361.47
2023-04-10T20:32:02.332Z,100359.31
2023-04-10T20:34:30.078Z,100362.03
2023-04-10T20:36:59.286Z,100359.31
2023-04-10T20:39:27.204Z,100347.47
2023-04-10T20:41:55.701Z,100341.06
2023-04-10T20:44:25.584Z,100346.28
2023-04-10T20:46:57.245Z,100348.78
2023-04-10T20:49:27.873Z,100350.78
2023-04-10T20:52:01.505Z,100324.47
2023-04-10T20:54:32.493Z,100314.88
2023-04-10T20:57:01.700Z,100300.75
2023-04-10T20:59:31.476Z,100305.03
2023-04-10T21:02:08.142Z,100306.69
2023-04-10T21:04:37.053Z,100293.19
2023-04-10T21:07:09.449Z,100299.69
2023-04-10T21:09:38.755Z,100305.16
2023-04-10T21:12:06.767Z,100303.97
2023-04-10T21:14:35.840Z,100300.38
2023-04-10T21:17:03.831Z,100293.88
2023-04-10T21:19:31.606Z,100278.25
2023-04-10T21:21:59.483Z,100286.66
2023-04-10T21:24:29.668Z,100283.69
2023-04-10T21:26:57.908Z,100276.94
2023-04-10T21:29:26.404Z,100276.09
2023-04-10T21:31:55.183Z,100275.53
2023-04-10T21:34:25.277Z,100271.94
2023-04-10T21:36:53.143Z,100274.47
2023-04-10T21:39:22.676Z,100272.31
2023-04-10T21:41:57.393Z,100269.13
2023-04-10T21:44:26.036Z,100279.78
2023-04-10T21:46:55.791Z,100297.19
2023-04-10T21:49:23.562Z,100296.81
2023-04-10T21:51:51.742Z,100294.09
2023-04-10T21:54:20.097Z,100296.56
2023-04-10T21:56:48.160Z,100303.31
2023-04-10T21:59:18.197Z,100319.41
2023-04-10T22:01:46.589Z,100327.53
2023-04-10T22:04:17.973Z,100321.59
2023-04-10T22:06:49.070Z,100336.59
2023-04-10T22:09:25.641Z,100329.06
2023-04-10T22:11:56.661Z,100322.91
2023-04-10T22:14:26.783Z,100310.66
2023-04-10T22:16:56.036Z,100305.63
2023-04-10T22:19:25.797Z,100307.22
2023-04-10T22:21:53.866Z,100295.91
2023-04-10T22:24:22.315Z,100299.34
2023-04-10T22:26:51.324Z,100299.13
2023-04-10T22:29:19.842Z,100298.53
2023-04-10T22:31:49.022Z,100299.66
2023-04-10T22:34:17.927Z,100303.81
2023-04-10T22:36:45.834Z,100295.59
2023-04-10T22:39:13.604Z,100295.66
2023-04-10T22:41:42.752Z,100297.09
2023-04-10T22:44:10.876Z,100282.84
2023-04-10T22:46:38.713Z,100284.19
2023-04-10T22:49:17.026Z,100276.16
2023-04-10T22:51:46.546Z,100260.72
2023-04-10T22:54:15.823Z,100281.00
2023-04-10T22:56:45.609Z,100272.72
2023-04-10T22:59:13.359Z,100276.63
2023-04-10T23:01:41.117Z,100272.50
2023-04-10T23:04:08.850Z,100274.59
2023-04-10T23:06:37.892Z,100284.22
2023-04-10T23:09:05.889Z,100296.03
2023-04-10T23:11:34.144Z,100289.63
2023-04-10T23:14:01.874Z,100284.47
2023-04-10T23:16:29.883Z,100283.22
2023-04-10T23:18:58.174Z,100277.00
2023-04-10T23:21:27.050Z,100280.81
2023-04-10T23:23:56.412Z,100273.28
2023-04-10T23:26:24.548Z,100279.47
2023-04-10T23:28:52.429Z,100276.94
2023-04-10T23:31:20.230Z,100261.53
2023-04-10T23:33:48.089Z,100261.56
2023-04-10T23:36:17.135Z,100266.16
2023-04-10T23:38:44.877Z,100266.78
2023-04-10T23:41:13.981Z,100264.69
2023-04-10T23:43:41.685Z,100265.38
2023-04-10T23:46:09.444Z,100265.97
2023-04-10T23:48:37.288Z,100258.69
2023-04-10T23:51:06.005Z,100265.56
2023-04-10T23:53:34.358Z,100256.63
2023-04-10T23:56:04.106Z,100244.53
2023-04-10T23:58:33.215Z,100232.97
